Time;durP1;ratioP1;P1;durP2;ratioP2;P2;SDS_P1;SDS_P2;PMS_P1;PMS_P2;Temp;Humidity;BMP_temperature;BMP_pressure;BME280_temperature;BME280_humidity;BME280_pressure;Samples;Min_cycle;Max_cycle;Signal;HPM_P1;HPM_P2
2021/05/24 00:01:50;;;;;;;3.72;0.90;;;15.40;99.90;;;;;;5034950;28;20029;-73
2021/05/24 00:04:15;;;;;;;0.40;0.40;;;15.40;99.90;;;;;;5052479;28;20025;-71
2021/05/24 00:06:41;;;;;;;0.40;0.40;;;15.40;99.90;;;;;;5053073;28;20025;-71
2021/05/24 00:09:07;;;;;;;1.75;0.50;;;15.40;99.90;;;;;;5034848;28;20021;-71
2021/05/24 00:11:33;;;;;;;0.93;0.60;;;15.40;99.90;;;;;;5052728;28;20116;-71
2021/05/24 00:13:59;;;;;;;0.75;0.45;;;15.40;99.90;;;;;;5034824;28;20171;-71
2021/05/24 00:16:26;;;;;;;1.77;0.50;;;15.40;99.90;;;;;;5052575;28;20055;-71
2021/05/24 00:18:53;;;;;;;0.45;0.45;;;15.40;99.90;;;;;;5052964;28;20025;-72
2021/05/24 00:21:20;;;;;;;0.52;0.52;;;15.30;99.90;;;;;;5052697;28;20127;-72
2021/05/24 00:23:46;;;;;;;0.88;0.38;;;15.30;99.90;;;;;;5052680;28;20025;-71
2021/05/24 00:26:13;;;;;;;4.28;0.60;;;15.30;99.90;;;;;;5053070;28;20382;-71
2021/05/24 00:28:40;;;;;;;1.35;0.70;;;15.30;99.90;;;;;;5038618;28;20036;-70
2021/05/24 00:31:07;;;;;;;1.90;0.60;;;15.30;99.90;;;;;;5056429;28;20120;-70
2021/05/24 00:33:33;;;;;;;0.45;0.40;;;15.30;99.90;;;;;;5056485;28;20108;-70
2021/05/24 00:35:59;;;;;;;2.22;0.82;;;15.20;99.90;;;;;;5056387;28;20485;-71
2021/05/24 00:38:26;;;;;;;1.50;0.50;;;15.20;99.90;;;;;;5056365;28;20033;-70
2021/05/24 00:40:52;;;;;;;5.03;0.60;;;15.10;99.90;;;;;;5056393;28;20124;-70
2021/05/24 00:43:18;;;;;;;0.55;0.55;;;15.10;99.90;;;;;;5056326;28;20029;-71
2021/05/24 00:45:43;;;;;;;0.40;0.40;;;15.10;99.90;;;;;;5056267;28;20083;-70
2021/05/24 00:48:10;;;;;;;0.60;0.60;;;15.10;99.90;;;;;;5056204;28;20100;-71
2021/05/24 00:50:38;;;;;;;1.30;0.80;;;15.10;99.90;;;;;;5056163;28;20056;-72
2021/05/24 00:53:04;;;;;;;1.15;0.70;;;15.00;99.90;;;;;;5056429;28;20063;-70
2021/05/24 00:55:30;;;;;;;0.60;0.60;;;14.90;99.90;;;;;;5056071;28;20025;-70
2021/05/24 00:57:56;;;;;;;0.93;0.77;;;14.80;99.90;;;;;;5055746;28;20492;-70
2021/05/24 01:00:42;;;;;;;1.30;0.57;;;14.70;99.90;;;;;;5055988;28;20087;-70
2021/05/24 01:03:11;;;;;;;0.80;0.50;;;14.60;99.90;;;;;;5038096;28;20021;-73
2021/05/24 01:05:38;;;;;;;0.40;0.40;;;14.60;99.90;;;;;;5037929;28;20059;-70
2021/05/24 01:08:05;;;;;;;1.30;0.50;;;14.70;99.90;;;;;;5037953;28;20048;-70
2021/05/24 01:10:32;;;;;;;0.73;0.45;;;14.60;99.90;;;;;;5037510;28;20082;-70
2021/05/24 01:13:00;;;;;;;0.50;0.50;;;14.60;99.90;;;;;;5055871;28;20029;-69
2021/05/24 01:15:27;;;;;;;4.10;0.90;;;14.50;99.90;;;;;;5055314;28;20512;-70
2021/05/24 01:17:54;;;;;;;1.48;1.40;;;14.50;99.90;;;;;;5055731;28;20017;-71
2021/05/24 01:20:21;;;;;;;2.78;1.75;;;14.50;99.90;;;;;;5055639;28;20112;-70
2021/05/24 01:22:57;;;;;;;1.10;1.00;;;14.50;99.90;;;;;;5055638;28;20029;-70
2021/05/24 01:25:24;;;;;;;0.85;0.85;;;14.50;99.90;;;;;;5037644;28;20052;-72
2021/05/24 01:27:50;;;;;;;0.80;0.60;;;14.60;99.90;;;;;;5055473;28;20064;-71
2021/05/24 01:30:16;;;;;;;1.30;0.90;;;14.60;99.90;;;;;;5055600;28;20105;-70
2021/05/24 01:32:42;;;;;;;0.85;0.85;;;14.60;99.90;;;;;;5055392;28;20020;-71
2021/05/24 01:35:09;;;;;;;0.80;0.80;;;14.60;99.90;;;;;;5037357;28;20382;-71
2021/05/24 01:37:34;;;;;;;2.13;0.60;;;14.70;99.90;;;;;;5055113;28;20029;-71
2021/05/24 01:40:01;;;;;;;0.70;0.70;;;14.70;99.90;;;;;;5055182;28;20032;-71
2021/05/24 01:42:27;;;;;;;2.72;0.73;;;14.70;99.90;;;;;;5037224;28;20111;-71
2021/05/24 01:44:53;;;;;;;0.73;0.73;;;14.80;99.90;;;;;;5055130;28;20119;-71
2021/05/24 01:47:19;;;;;;;1.48;0.70;;;14.80;99.90;;;;;;5055104;28;20104;-71
2021/05/24 01:49:48;;;;;;;0.80;0.80;;;14.80;99.90;;;;;;5037092;28;20029;-72
2021/05/24 01:52:18;;;;;;;0.93;0.85;;;14.90;99.90;;;;;;5055067;28;20036;-71
2021/05/24 01:54:46;;;;;;;0.95;0.75;;;14.90;99.90;;;;;;5036809;28;20021;-71
2021/05/24 01:57:13;;;;;;;0.68;0.68;;;15.00;99.90;;;;;;5054633;28;20452;-71
2021/05/24 01:59:43;;;;;;;1.90;1.00;;;15.00;99.90;;;;;;5054868;28;20025;-71
2021/05/24 02:02:09;;;;;;;4.80;0.93;;;15.00;99.90;;;;;;5054906;28;20032;-70
2021/05/24 02:04:35;;;;;;;1.27;1.00;;;15.10;99.90;;;;;;5055025;28;20036;-71
2021/05/24 02:07:02;;;;;;;4.05;0.88;;;15.00;99.90;;;;;;5036852;28;20100;-71
2021/05/24 02:09:28;;;;;;;1.50;0.73;;;15.00;99.90;;;;;;5036757;28;20417;-71
2021/05/24 02:11:54;;;;;;;2.28;1.05;;;15.00;99.90;;;;;;5037010;28;20028;-71
2021/05/24 02:14:20;;;;;;;1.30;0.82;;;15.00;99.90;;;;;;5054629;28;20025;-71
2021/05/24 02:16:52;;;;;;;0.60;0.60;;;15.00;99.90;;;;;;5054537;28;20064;-71
2021/05/24 02:19:19;;;;;;;1.38;0.90;;;15.00;99.90;;;;;;5036676;28;20381;-70
2021/05/24 02:21:46;;;;;;;1.40;1.05;;;14.90;99.90;;;;;;5036508;28;20116;-71
2021/05/24 02:24:13;;;;;;;0.70;0.70;;;14.90;99.90;;;;;;5054448;28;20021;-71
2021/05/24 02:26:42;;;;;;;1.00;0.85;;;14.90;99.90;;;;;;5036456;28;20037;-71
2021/05/24 02:29:08;;;;;;;1.23;1.10;;;14.90;99.90;;;;;;5054348;28;20025;-72
2021/05/24 02:31:35;;;;;;;1.08;1.00;;;14.90;99.90;;;;;;5053902;28;20079;-71
2021/05/24 02:34:05;;;;;;;2.95;1.73;;;14.90;99.90;;;;;;5036309;28;20025;-71
2021/05/24 02:36:32;;;;;;;1.30;1.20;;;14.80;99.90;;;;;;5054422;28;20461;-70
2021/05/24 02:38:58;;;;;;;4.78;1.10;;;14.70;99.90;;;;;;5054150;28;20025;-69
2021/05/24 02:41:24;;;;;;;1.88;1.02;;;14.70;99.90;;;;;;5054090;28;20057;-69
2021/05/24 02:43:50;;;;;;;0.98;0.95;;;14.80;99.90;;;;;;5054363;28;20063;-69
2021/05/24 02:46:17;;;;;;;3.22;1.00;;;14.70;99.90;;;;;;5036029;28;20463;-69
2021/05/24 02:48:42;;;;;;;1.38;1.15;;;14.60;99.90;;;;;;5053707;28;20027;-68
2021/05/24 02:51:08;;;;;;;2.92;1.30;;;14.60;99.90;;;;;;5053574;28;20033;-69
2021/05/24 02:53:34;;;;;;;8.73;1.73;;;14.50;99.90;;;;;;5035960;28;20029;-69
2021/05/24 02:56:01;;;;;;;4.40;1.67;;;14.50;99.90;;;;;;5035847;28;20035;-69
2021/05/24 02:58:26;;;;;;;1.25;1.15;;;14.50;99.90;;;;;;5054075;28;20031;-69
2021/05/24 03:00:52;;;;;;;1.48;1.10;;;14.50;99.90;;;;;;5053691;28;20037;-71
2021/05/24 03:03:20;;;;;;;1.20;1.08;;;14.50;99.90;;;;;;5053763;28;20029;-70
2021/05/24 03:05:46;;;;;;;1.08;1.00;;;14.50;99.90;;;;;;5053602;28;20477;-70
2021/05/24 03:08:12;;;;;;;7.47;1.55;;;14.40;99.90;;;;;;5053846;28;20037;-71
2021/05/24 03:10:40;;;;;;;4.00;1.52;;;14.40;99.90;;;;;;5035544;28;20029;-72
2021/05/24 03:13:06;;;;;;;3.38;1.90;;;14.40;99.90;;;;;;5053596;28;20111;-73
2021/05/24 03:15:31;;;;;;;11.48;2.65;;;14.40;99.90;;;;;;5027609;28;20078;-70
2021/05/24 03:17:57;;;;;;;2.17;2.00;;;14.40;99.90;;;;;;5012546;28;20441;-71
2021/05/24 03:20:23;;;;;;;8.95;2.75;;;14.30;99.90;;;;;;5013779;28;20069;-70
2021/05/24 03:22:49;;;;;;;8.68;2.72;;;14.30;99.90;;;;;;5012428;28;20038;-70
2021/05/24 03:25:17;;;;;;;3.30;2.13;;;14.30;99.90;;;;;;5014001;28;20087;-71
2021/05/24 03:27:44;;;;;;;6.60;1.80;;;14.30;99.90;;;;;;5012335;28;20487;-70
2021/05/24 03:30:11;;;;;;;1.90;1.70;;;14.30;99.90;;;;;;5012227;28;20037;-72
2021/05/24 03:32:38;;;;;;;2.47;1.85;;;14.30;99.90;;;;;;5013652;28;20037;-71
2021/05/24 03:35:06;;;;;;;2.55;1.85;;;14.40;99.90;;;;;;5013554;28;20033;-72
2021/05/24 03:37:31;;;;;;;5.82;1.88;;;14.30;99.90;;;;;;5012128;28;20025;-72
2021/05/24 03:39:57;;;;;;;1.92;1.80;;;14.30;99.90;;;;;;5013504;28;20088;-72
2021/05/24 03:42:24;;;;;;;3.00;1.95;;;14.30;99.90;;;;;;5012139;28;20030;-71
2021/05/24 03:44:50;;;;;;;2.53;2.08;;;14.40;99.90;;;;;;5012156;28;20482;-71
2021/05/24 03:47:16;;;;;;;16.30;2.58;;;14.40;99.90;;;;;;5013406;28;20090;-71
2021/05/24 03:49:45;;;;;;;6.82;2.13;;;14.40;99.90;;;;;;5013145;28;20125;-71
2021/05/24 03:52:15;;;;;;;3.25;1.77;;;14.40;99.90;;;;;;5012000;28;20422;-71
2021/05/24 03:54:41;;;;;;;4.30;1.83;;;14.40;99.90;;;;;;5013407;28;20148;-71
2021/05/24 03:57:09;;;;;;;3.17;1.63;;;14.50;99.90;;;;;;5012993;28;20030;-70
2021/05/24 03:59:35;;;;;;;4.03;1.92;;;14.40;99.90;;;;;;5012822;28;20049;-71
2021/05/24 04:02:02;;;;;;;4.57;1.73;;;14.40;99.90;;;;;;5013777;28;20076;-71
2021/05/24 04:04:28;;;;;;;5.63;2.00;;;14.50;99.90;;;;;;5017408;28;20028;-70
2021/05/24 04:06:57;;;;;;;4.20;1.50;;;14.50;99.90;;;;;;5015978;28;20030;-71
2021/05/24 04:09:23;;;;;;;1.30;1.20;;;14.50;99.90;;;;;;5015930;28;20037;-71
2021/05/24 04:11:49;;;;;;;3.55;1.50;;;14.60;99.90;;;;;;5015794;28;20029;-72
2021/05/24 04:14:15;;;;;;;3.70;1.40;;;14.60;99.90;;;;;;5017207;28;20113;-71
2021/05/24 04:16:41;;;;;;;1.40;1.30;;;14.60;99.90;;;;;;5044672;28;20045;-71
2021/05/24 04:19:10;;;;;;;2.92;1.35;;;14.70;99.90;;;;;;5056725;28;20075;-71
2021/05/24 04:21:36;;;;;;;2.28;1.40;;;14.80;99.90;;;;;;5057000;28;20037;-71
2021/05/24 04:24:04;;;;;;;2.70;1.20;;;14.80;99.90;;;;;;5038852;28;20029;-72
2021/05/24 04:26:30;;;;;;;1.40;1.30;;;14.90;99.90;;;;;;5056642;28;20059;-72
2021/05/24 04:28:56;;;;;;;2.08;1.40;;;14.90;99.90;;;;;;5038677;28;20056;-72
2021/05/24 04:31:23;;;;;;;1.70;1.38;;;15.00;99.90;;;;;;5038545;28;20082;-71
2021/05/24 04:33:49;;;;;;;3.55;2.08;;;15.10;99.90;;;;;;5056601;28;20032;-71
2021/05/24 04:36:15;;;;;;;3.90;2.08;;;15.10;99.90;;;;;;5056731;28;20071;-71
2021/05/24 04:38:41;;;;;;;3.15;1.50;;;15.20;99.90;;;;;;5056463;28;20151;-71
2021/05/24 04:41:07;;;;;;;1.77;1.20;;;15.30;99.90;;;;;;5056394;28;20111;-72
2021/05/24 04:43:34;;;;;;;1.73;1.50;;;15.30;99.90;;;;;;5056815;28;20029;-72
2021/05/24 04:46:00;;;;;;;5.55;1.50;;;15.40;99.90;;;;;;5056412;28;20029;-71
2021/05/24 04:48:26;;;;;;;1.40;1.30;;;15.40;99.90;;;;;;5056236;28;20580;-71
2021/05/24 04:50:52;;;;;;;1.33;1.30;;;15.40;99.90;;;;;;5056069;28;20029;-72
2021/05/24 04:53:18;;;;;;;2.00;1.42;;;15.40;99.90;;;;;;5055839;28;20032;-72
2021/05/24 04:55:44;;;;;;;4.28;1.00;;;15.50;99.90;;;;;;5056016;28;20043;-71
2021/05/24 04:58:11;;;;;;;4.78;1.33;;;15.60;99.90;;;;;;5055968;28;20087;-71
2021/05/24 05:00:38;;;;;;;0.90;0.90;;;15.70;99.90;;;;;;5055869;28;20105;-70
2021/05/24 05:03:04;;;;;;;1.90;1.00;;;15.80;99.90;;;;;;5055443;28;20492;-71
2021/05/24 05:05:30;;;;;;;2.15;1.23;;;15.80;99.90;;;;;;5038104;28;20025;-70
2021/05/24 05:07:56;;;;;;;1.67;1.27;;;15.90;99.90;;;;;;5037882;28;20120;-72
2021/05/24 05:10:22;;;;;;;2.67;1.50;;;16.00;99.90;;;;;;5055441;28;20113;-70
2021/05/24 05:12:48;;;;;;;2.72;1.13;;;16.00;99.90;;;;;;5055291;28;20389;-72
2021/05/24 05:15:13;;;;;;;3.45;1.10;;;16.00;99.90;;;;;;5055229;28;20031;-72
2021/05/24 05:17:39;;;;;;;4.53;1.00;;;16.10;99.90;;;;;;5037648;28;20132;-71
2021/05/24 05:20:05;;;;;;;1.75;1.20;;;16.10;99.90;;;;;;5055612;28;20454;-72
2021/05/24 05:22:31;;;;;;;1.52;1.10;;;16.20;99.90;;;;;;5037644;28;20021;-71
2021/05/24 05:24:57;;;;;;;2.50;1.42;;;16.10;99.90;;;;;;5055511;28;20075;-71
2021/05/24 05:27:23;;;;;;;0.98;0.88;;;16.20;99.90;;;;;;5055408;28;20021;-72
2021/05/24 05:29:49;;;;;;;1.00;1.00;;;16.30;99.90;;;;;;5037328;28;20040;-71
2021/05/24 05:32:15;;;;;;;2.00;1.23;;;16.40;99.90;;;;;;5055197;28;20033;-72
2021/05/24 05:34:41;;;;;;;1.40;1.20;;;16.40;99.90;;;;;;5055010;28;20036;-71
2021/05/24 05:37:07;;;;;;;3.65;1.52;;;16.40;99.90;;;;;;5054999;28;20021;-71
2021/05/24 05:39:33;;;;;;;1.77;1.58;;;16.40;99.90;;;;;;5055230;28;20032;-69
2021/05/24 05:41:59;;;;;;;2.88;2.00;;;16.50;99.90;;;;;;5055243;28;20492;-70
2021/05/24 05:44:25;;;;;;;1.98;1.70;;;16.50;99.90;;;;;;5055166;28;20106;-71
2021/05/24 05:46:51;;;;;;;10.27;1.35;;;16.70;99.90;;;;;;5036737;28;20112;-74
2021/05/24 05:49:17;;;;;;;1.20;1.00;;;16.70;99.90;;;;;;5036816;28;20159;-73
2021/05/24 05:51:43;;;;;;;1.25;1.05;;;16.70;99.90;;;;;;5054835;28;20029;-70
2021/05/24 05:54:09;;;;;;;2.60;1.17;;;16.90;99.90;;;;;;5055159;28;20048;-70
2021/05/24 05:56:34;;;;;;;3.80;1.00;;;16.90;99.90;;;;;;5054499;28;20035;-71
2021/05/24 05:59:00;;;;;;;2.08;1.08;;;17.00;99.90;;;;;;5054699;28;20462;-71
2021/05/24 06:01:26;;;;;;;6.00;1.20;;;17.00;99.90;;;;;;5036751;28;20079;-69
2021/05/24 06:03:52;;;;;;;1.48;0.80;;;17.10;99.90;;;;;;5055013;28;20027;-69
2021/05/24 06:06:19;;;;;;;1.52;1.05;;;17.20;99.90;;;;;;5036812;28;20436;-69
2021/05/24 06:08:45;;;;;;;3.83;0.93;;;17.30;99.90;;;;;;5054667;28;20024;-72
2021/05/24 06:11:11;;;;;;;0.65;0.65;;;17.40;99.90;;;;;;5054537;28;20082;-72
2021/05/24 06:13:36;;;;;;;1.23;0.77;;;17.60;99.90;;;;;;5054233;28;20033;-70
2021/05/24 06:16:02;;;;;;;0.60;0.60;;;17.80;99.90;;;;;;5054466;28;20045;-70
2021/05/24 06:18:28;;;;;;;1.17;0.70;;;18.00;99.90;;;;;;5054554;28;20024;-71
2021/05/24 06:20:55;;;;;;;0.70;0.70;;;18.00;99.90;;;;;;5054172;28;20033;-71
2021/05/24 06:23:21;;;;;;;0.75;0.50;;;18.20;99.90;;;;;;5036212;28;20120;-71
2021/05/24 06:25:47;;;;;;;0.57;0.57;;;18.40;99.90;;;;;;5035533;28;20116;-72
2021/05/24 06:28:13;;;;;;;1.58;0.60;;;18.50;99.10;;;;;;5054286;28;20049;-72
2021/05/24 06:30:39;;;;;;;0.95;0.88;;;18.80;98.60;;;;;;5036142;28;20389;-73
2021/05/24 06:33:05;;;;;;;2.05;0.80;;;19.00;97.80;;;;;;5036129;28;20025;-70
2021/05/24 06:35:31;;;;;;;0.60;0.60;;;19.20;98.20;;;;;;5036075;28;20025;-69
2021/05/24 06:37:57;;;;;;;6.78;0.90;;;19.30;97.80;;;;;;5054046;28;20040;-71
2021/05/24 06:40:23;;;;;;;1.90;1.15;;;19.40;96.50;;;;;;5054034;28;20100;-69
2021/05/24 06:42:49;;;;;;;1.10;0.80;;;19.50;97.00;;;;;;5053889;28;20100;-70
2021/05/24 06:45:19;;;;;;;1.75;0.80;;;19.40;96.90;;;;;;5053956;28;20036;-70
2021/05/24 06:47:45;;;;;;;1.23;0.65;;;19.40;97.00;;;;;;5035726;28;20029;-70
2021/05/24 06:50:12;;;;;;;2.33;0.55;;;19.30;95.10;;;;;;5053543;28;20025;-70
2021/05/24 06:52:38;;;;;;;2.00;0.70;;;19.20;95.00;;;;;;5035812;28;20029;-71
2021/05/24 06:55:05;;;;;;;0.55;0.55;;;19.30;95.80;;;;;;5053792;28;20104;-70
2021/05/24 06:57:31;;;;;;;4.63;0.55;;;19.20;95.70;;;;;;5053461;28;20033;-71
2021/05/24 06:59:57;;;;;;;10.82;1.35;;;19.30;96.10;;;;;;5053636;28;20083;-73
2021/05/24 07:02:23;;;;;;;3.50;0.82;;;19.20;95.80;;;;;;5053223;28;20025;-70
2021/05/24 07:04:49;;;;;;;2.30;0.70;;;19.20;95.60;;;;;;5035073;28;20394;-73
2021/05/24 07:07:15;;;;;;;1.48;0.80;;;19.30;96.30;;;;;;5053549;28;20031;-70
2021/05/24 07:09:41;;;;;;;1.35;1.02;;;19.40;96.00;;;;;;5035567;28;20035;-70
2021/05/24 07:12:08;;;;;;;0.90;0.50;;;19.40;96.30;;;;;;5035450;28;20036;-71
2021/05/24 07:14:34;;;;;;;1.17;0.85;;;19.50;95.80;;;;;;5053503;28;20540;-71
2021/05/24 07:17:00;;;;;;;1.65;0.82;;;19.50;95.20;;;;;;5050777;28;20105;-71
2021/05/24 07:19:26;;;;;;;1.42;0.70;;;19.60;95.10;;;;;;5031584;28;20036;-69
2021/05/24 07:21:54;;;;;;;1.92;0.50;;;19.70;95.30;;;;;;5034921;28;20079;-70
2021/05/24 07:24:20;;;;;;;1.05;0.60;;;19.70;94.80;;;;;;5053147;28;20029;-71
2021/05/24 07:26:49;;;;;;;1.02;0.60;;;19.80;94.70;;;;;;5052247;28;20516;-70
2021/05/24 07:29:15;;;;;;;0.70;0.52;;;19.80;94.50;;;;;;5053303;28;20071;-69
2021/05/24 07:31:41;;;;;;;0.57;0.57;;;20.00;94.80;;;;;;5053037;28;20120;-69
2021/05/24 07:34:07;;;;;;;1.02;0.57;;;20.00;95.50;;;;;;5035028;28;20124;-70
2021/05/24 07:36:33;;;;;;;1.20;0.68;;;20.00;94.60;;;;;;5034927;28;20031;-71
2021/05/24 07:38:58;;;;;;;0.80;0.70;;;19.90;94.90;;;;;;5034921;28;20074;-70
2021/05/24 07:41:24;;;;;;;1.33;0.65;;;19.90;94.90;;;;;;5053135;28;20029;-70
2021/05/24 07:43:50;;;;;;;0.82;0.82;;;20.10;95.30;;;;;;5049527;28;20033;-69
2021/05/24 07:46:16;;;;;;;3.08;0.45;;;20.20;94.50;;;;;;5049804;28;20485;-69
2021/05/24 07:48:41;;;;;;;1.10;0.77;;;20.40;94.90;;;;;;5052771;28;20037;-72
2021/05/24 07:51:08;;;;;;;1.50;0.75;;;20.50;93.90;;;;;;5052923;28;20041;-71
2021/05/24 07:53:34;;;;;;;1.70;0.70;;;20.40;93.70;;;;;;5052804;28;20056;-71
2021/05/24 07:56:00;;;;;;;0.73;0.45;;;20.50;93.80;;;;;;5034790;28;20102;-68
2021/05/24 07:58:26;;;;;;;2.50;0.60;;;20.40;94.50;;;;;;5052779;28;20036;-70
2021/05/24 08:00:52;;;;;;;0.40;0.40;;;20.40;94.30;;;;;;5051376;28;20024;-69
2021/05/24 08:03:18;;;;;;;1.83;0.60;;;20.30;93.50;;;;;;5072352;28;20099;-70
2021/05/24 08:05:43;;;;;;;0.52;0.52;;;20.40;94.00;;;;;;5072727;28;20024;-70
2021/05/24 08:08:09;;;;;;;0.60;0.60;;;20.50;93.80;;;;;;5054755;28;20033;-69
2021/05/24 08:10:36;;;;;;;0.75;0.70;;;20.80;94.00;;;;;;5054563;28;20521;-72
2021/05/24 08:13:02;;;;;;;0.95;0.60;;;20.90;93.20;;;;;;5053431;28;20060;-71
2021/05/24 08:15:30;;;;;;;2.60;0.77;;;20.80;93.00;;;;;;5071048;28;20087;-71
2021/05/24 08:18:01;;;;;;;1.52;0.80;;;21.00;92.80;;;;;;5053891;28;20033;-69
2021/05/24 08:20:27;;;;;;;0.60;0.60;;;21.30;92.10;;;;;;5072364;28;20082;-71
2021/05/24 08:22:54;;;;;;;0.88;0.60;;;21.40;92.10;;;;;;5054000;28;20453;-70
2021/05/24 08:25:20;;;;;;;1.00;0.65;;;21.30;92.40;;;;;;5072134;28;20033;-70
2021/05/24 08:27:46;;;;;;;2.15;0.75;;;21.40;92.60;;;;;;5072413;28;20377;-71
2021/05/24 08:30:13;;;;;;;1.23;0.65;;;21.60;92.60;;;;;;5072501;28;20029;-71
2021/05/24 08:32:39;;;;;;;1.40;0.60;;;21.70;92.20;;;;;;5072520;28;20024;-71
2021/05/24 08:35:06;;;;;;;1.85;0.75;;;21.90;91.90;;;;;;5072049;28;20517;-69
2021/05/24 08:37:32;;;;;;;0.65;0.47;;;21.80;91.90;;;;;;5072095;28;20027;-71
2021/05/24 08:39:58;;;;;;;1.58;1.17;;;21.70;91.90;;;;;;5072061;28;20025;-71
2021/05/24 08:42:29;;;;;;;0.98;0.55;;;21.60;91.80;;;;;;5054318;28;20392;-70
2021/05/24 08:44:59;;;;;;;0.70;0.65;;;21.60;91.70;;;;;;5072829;28;20079;-71
2021/05/24 08:47:28;;;;;;;0.68;0.50;;;21.70;91.90;;;;;;5073157;28;20028;-71
2021/05/24 08:49:54;;;;;;;0.80;0.80;;;21.60;91.90;;;;;;5075935;28;20046;-71
2021/05/24 08:52:20;;;;;;;0.85;0.77;;;21.50;91.70;;;;;;5058676;28;20036;-70
2021/05/24 08:54:46;;;;;;;8.43;1.00;;;21.50;91.70;;;;;;5075503;28;20029;-71
2021/05/24 08:57:13;;;;;;;1.17;0.63;;;21.40;92.10;;;;;;5076323;28;20077;-71
2021/05/24 08:59:39;;;;;;;1.30;0.73;;;;;;;;;;5058033;28;20025;-71
2021/05/24 09:02:05;;;;;;;7.70;0.80;;;21.40;92.10;;;;;;5075929;28;20024;-70
2021/05/24 09:04:43;;;;;;;1.00;0.55;;;21.40;92.00;;;;;;5075793;28;20032;-70
2021/05/24 09:07:10;;;;;;;1.98;0.60;;;21.40;91.70;;;;;;5075786;28;20047;-71
2021/05/24 09:09:36;;;;;;;1.10;0.60;;;21.50;91.00;;;;;;5057730;28;20029;-71
2021/05/24 09:12:10;;;;;;;2.03;0.80;;;21.50;91.70;;;;;;5057696;28;20094;-71
2021/05/24 09:14:36;;;;;;;0.80;0.80;;;21.30;91.80;;;;;;5057569;28;20493;-71
2021/05/24 09:17:03;;;;;;;0.80;0.70;;;21.20;92.10;;;;;;5073022;28;20088;-70
2021/05/24 09:19:31;;;;;;;1.23;0.47;;;21.00;91.70;;;;;;5057552;28;20025;-70
2021/05/24 09:21:59;;;;;;;0.60;0.60;;;20.90;91.90;;;;;;5075469;28;20453;-71
2021/05/24 09:24:31;;;;;;;3.33;0.70;;;20.90;92.00;;;;;;5075517;28;20029;-71
2021/05/24 09:26:59;;;;;;;0.57;0.50;;;21.00;91.90;;;;;;5057480;28;20028;-71
2021/05/24 09:29:42;;;;;;;1.35;0.60;;;21.20;92.40;;;;;;5075394;28;20313;-71
2021/05/24 09:32:12;;;;;;;1.10;0.75;;;;;;;;;;5075315;28;20112;-71
2021/05/24 09:34:39;;;;;;;0.93;0.60;;;;;;;;;;5075333;28;20020;-71
2021/05/24 09:37:06;;;;;;;0.50;0.45;;;22.30;90.30;;;;;;5057368;28;20021;-70
2021/05/24 09:39:33;;;;;;;1.80;0.60;;;22.70;90.30;;;;;;5075023;28;20377;-70
2021/05/24 09:42:04;;;;;;;0.52;0.52;;;22.80;90.30;;;;;;5057164;28;20538;-70
2021/05/24 09:44:32;;;;;;;1.33;0.55;;;22.80;90.00;;;;;;5075201;28;20025;-71
2021/05/24 09:46:59;;;;;;;1.13;0.52;;;22.60;89.30;;;;;;5057030;28;20059;-71
2021/05/24 09:49:29;;;;;;;0.60;0.60;;;22.70;89.70;;;;;;5068177;28;20071;-72
2021/05/24 09:51:57;;;;;;;0.40;0.40;;;22.60;89.60;;;;;;5036544;28;20099;-71
2021/05/24 09:54:40;;;;;;;2.95;0.63;;;22.50;88.60;;;;;;5036904;28;20120;-71
2021/05/24 09:57:12;;;;;;;2.80;0.57;;;22.50;90.00;;;;;;5054844;28;20029;-72
2021/05/24 09:59:38;;;;;;;3.17;0.65;;;23.00;90.00;;;;;;5035651;28;20025;-74
2021/05/24 10:02:06;;;;;;;3.53;0.75;;;23.10;90.60;;;;;;5054672;28;20063;-73
2021/05/24 10:04:34;;;;;;;0.60;0.60;;;23.30;88.60;;;;;;5036291;28;20029;-72
2021/05/24 10:07:02;;;;;;;1.35;0.55;;;23.50;89.20;;;;;;5054642;28;20036;-73
2021/05/24 10:09:31;;;;;;;0.65;0.50;;;23.80;87.30;;;;;;5054176;28;20096;-73
2021/05/24 10:11:59;;;;;;;0.82;0.60;;;23.90;85.00;;;;;;5054336;28;20033;-72
2021/05/24 10:14:26;;;;;;;1.42;0.80;;;23.70;83.60;;;;;;5054543;28;20025;-71
2021/05/24 10:17:06;;;;;;;1.92;0.55;;;23.60;84.80;;;;;;5054091;28;20052;-72
2021/05/24 10:19:32;;;;;;;0.68;0.68;;;23.80;85.70;;;;;;5054508;28;20021;-73
2021/05/24 10:21:58;;;;;;;0.77;0.57;;;24.00;84.70;;;;;;5036542;28;20461;-74
2021/05/24 10:24:25;;;;;;;0.90;0.50;;;24.30;85.80;;;;;;5054433;28;20033;-74
2021/05/24 10:26:55;;;;;;;3.80;0.70;;;24.50;82.50;;;;;;5054294;28;20024;-74
2021/05/24 10:29:21;;;;;;;0.60;0.60;;;24.80;80.60;;;;;;5053348;28;20112;-73
2021/05/24 10:31:47;;;;;;;5.50;0.80;;;24.80;79.00;;;;;;5053512;28;20068;-71
2021/05/24 10:34:19;;;;;;;1.55;0.60;;;25.10;81.40;;;;;;5054237;28;20080;-72
2021/05/24 10:36:48;;;;;;;2.22;0.68;;;25.70;79.70;;;;;;5036300;28;20033;-71
2021/05/24 10:39:19;;;;;;;0.80;0.60;;;26.60;79.30;;;;;;5053650;28;20036;-72
2021/05/24 10:41:57;;;;;;;0.40;0.40;;;26.90;75.00;;;;;;5054105;28;20056;-72
2021/05/24 10:44:37;;;;;;;0.38;0.35;;;;;;;;;;5035691;28;20036;-72
2021/05/24 10:47:20;;;;;;;0.70;0.50;;;;;;;;;;5053596;28;20496;-70
2021/05/24 10:50:05;;;;;;;0.55;0.55;;;;;;;;;;5035321;28;20036;-71
2021/05/24 10:52:38;;;;;;;0.50;0.50;;;;;;;;;;5053632;28;20032;-70
2021/05/24 10:55:23;;;;;;;0.50;0.40;;;;;;;;;;5053425;28;20051;-72
2021/05/24 10:58:02;;;;;;;2.65;0.40;;;29.10;65.30;;;;;;5054048;28;20059;-71
2021/05/24 11:00:47;;;;;;;1.33;0.50;;;28.60;64.80;;;;;;5053739;28;20029;-71
2021/05/24 11:03:14;;;;;;;0.82;0.43;;;29.20;64.80;;;;;;5053668;28;20021;-72
2021/05/24 11:05:39;;;;;;;0.52;0.40;;;29.40;63.30;;;;;;5035598;28;20116;-71
2021/05/24 11:08:08;;;;;;;1.30;0.50;;;29.80;60.40;;;;;;5035475;28;20518;-71
2021/05/24 11:11:16;;;;;;;1.55;0.32;;;29.80;59.50;;;;;;5034530;28;20458;-71
2021/05/24 11:13:58;;;;;;;0.73;0.20;;;28.70;59.50;;;;;;5053076;28;20473;-71
2021/05/24 11:16:25;;;;;;;1.05;0.30;;;28.00;60.60;;;;;;5031681;28;20080;-71
2021/05/24 11:19:03;;;;;;;0.75;0.45;;;28.50;60.00;;;;;;5033382;28;20026;-71
2021/05/24 11:21:28;;;;;;;4.07;0.47;;;28.40;60.00;;;;;;5032211;28;20474;-71
2021/05/24 11:26:37;;;;;;;3.22;0.40;;;27.60;58.10;;;;;;5033604;28;20136;-72
2021/05/24 11:29:17;;;;;;;1.17;0.32;;;27.10;59.40;;;;;;5033212;28;20108;-72
2021/05/24 11:31:47;;;;;;;0.35;0.35;;;27.20;61.10;;;;;;5028216;28;20041;-71
2021/05/24 11:34:37;;;;;;;0.95;0.32;;;27.20;61.20;;;;;;5012014;28;20022;-72
2021/05/24 11:37:04;;;;;;;1.67;0.43;;;;;;;;;;5012774;28;20029;-72
2021/05/24 11:39:51;;;;;;;3.42;0.40;;;;;;;;;;5013315;28;20030;-72
2021/05/24 11:42:20;;;;;;;0.40;0.40;;;;;;;;;;5015820;28;20030;-72
2021/05/24 11:44:49;;;;;;;0.30;0.30;;;;;;;;;;5033187;28;20036;-71
2021/05/24 11:47:23;;;;;;;0.40;0.40;;;;;;;;;;5032698;28;20359;-70
2021/05/24 11:49:51;;;;;;;0.32;0.30;;;;;;;;;;5031367;28;20013;-72
2021/05/24 11:52:19;;;;;;;1.20;0.43;;;24.40;67.60;;;;;;5032381;28;20030;-71
2021/05/24 11:54:49;;;;;;;2.90;0.35;;;24.30;68.40;;;;;;5032527;28;20386;-71
2021/05/24 11:57:18;;;;;;;7.22;0.88;;;24.00;66.40;;;;;;5032084;28;20032;-71
2021/05/24 11:59:45;;;;;;;0.45;0.45;;;23.80;64.70;;;;;;5032514;28;20026;-72
2021/05/24 12:02:15;;;;;;;2.45;0.65;;;23.70;68.40;;;;;;5030372;28;20072;-71
2021/05/24 12:04:45;;;;;;;1.20;0.30;;;23.70;69.20;;;;;;5032528;28;20025;-72
2021/05/24 12:07:19;;;;;;;0.22;0.22;;;23.60;68.60;;;;;;5032762;28;20025;-72
2021/05/24 12:09:51;;;;;;;0.50;0.32;;;23.40;67.90;;;;;;5032483;28;20036;-72
2021/05/24 12:12:23;;;;;;;0.38;0.38;;;23.50;70.70;;;;;;5031221;28;20094;-71
2021/05/24 12:14:54;;;;;;;1.40;0.43;;;23.30;71.10;;;;;;5032777;28;20021;-73
2021/05/24 12:17:26;;;;;;;2.75;0.63;;;23.40;72.20;;;;;;5049841;28;20045;-73
2021/05/24 12:19:54;;;;;;;0.75;0.22;;;23.20;73.30;;;;;;5052478;28;20032;-71
2021/05/24 12:22:26;;;;;;;0.32;0.32;;;23.20;71.50;;;;;;5053053;28;20120;-72
2021/05/24 12:24:56;;;;;;;0.88;0.40;;;23.20;71.60;;;;;;5038392;28;20075;-71
2021/05/24 12:27:25;;;;;;;2.33;1.50;;;23.20;71.40;;;;;;5038397;28;20504;-72
2021/05/24 12:29:54;;;;;;;4.70;0.75;;;23.20;71.60;;;;;;5056529;28;20100;-73
2021/05/24 12:32:42;;;;;;;1.13;0.40;;;23.20;71.20;;;;;;5038382;28;20071;-72
2021/05/24 12:35:16;;;;;;;0.40;0.38;;;23.20;71.50;;;;;;5056079;28;20474;-71
2021/05/24 12:37:49;;;;;;;0.93;0.47;;;23.30;72.20;;;;;;5038437;28;20116;-71
2021/05/24 12:40:18;;;;;;;4.13;1.05;;;23.40;72.40;;;;;;5056755;28;20040;-70
2021/05/24 12:42:44;;;;;;;3.03;0.90;;;23.50;72.20;;;;;;5038572;28;20025;-71
2021/05/24 12:45:12;;;;;;;1.23;0.60;;;23.80;71.70;;;;;;5056086;28;20044;-71
2021/05/24 12:47:38;;;;;;;2.38;0.90;;;23.80;72.10;;;;;;5056024;28;20025;-71
2021/05/24 12:50:15;;;;;;;3.50;0.68;;;24.00;73.40;;;;;;5055620;28;20108;-72
2021/05/24 12:52:42;;;;;;;1.25;0.70;;;24.00;72.80;;;;;;5056020;28;20170;-72
2021/05/24 12:55:12;;;;;;;9.13;1.20;;;24.20;74.50;;;;;;5055942;28;20057;-72
2021/05/24 12:57:40;;;;;;;1.17;0.82;;;24.50;73.60;;;;;;5055808;28;20025;-71